Time;durP1;ratioP1;P1;durP2;ratioP2;P2;SDS_P1;SDS_P2;PMS_P1;PMS_P2;Temp;Humidity;BMP_temperature;BMP_pressure;BME280_temperature;BME280_humidity;BME280_pressure;Samples;Min_cycle;Max_cycle;Signal;HPM_P1;HPM_P2
2021/09/13 00:00:51;;;;;;;2.97;1.80;;;;;;;15.00;74.77;100549.47;5028194;28;20131;-76
2021/09/13 00:03:16;;;;;;;2.47;1.63;;;;;;;14.94;74.63;100544.00;5029543;28;20128;-76
2021/09/13 00:05:42;;;;;;;2.97;1.70;;;;;;;14.92;74.81;100546.28;5025170;28;20512;-76
2021/09/13 00:08:07;;;;;;;2.70;1.90;;;;;;;14.93;74.39;100542.38;4983343;28;20083;-76
2021/09/13 00:10:33;;;;;;;2.65;1.80;;;;;;;14.88;74.67;100539.72;5019049;28;20034;-76
2021/09/13 00:12:59;;;;;;;2.10;1.67;;;;;;;14.83;74.76;100531.47;4995367;28;20041;-76
2021/09/13 00:15:24;;;;;;;3.05;2.00;;;;;;;14.79;75.01;100533.22;5007177;28;20026;-76
2021/09/13 00:17:50;;;;;;;2.70;1.70;;;;;;;14.79;75.24;100527.66;5021275;28;20041;-76
2021/09/13 00:20:16;;;;;;;2.63;1.73;;;;;;;14.74;74.88;100523.03;5013214;28;20115;-76
2021/09/13 00:22:41;;;;;;;4.65;2.05;;;;;;;14.77;75.11;100527.16;5017301;28;20418;-77
2021/09/13 00:25:07;;;;;;;3.83;1.60;;;;;;;14.74;75.08;100525.00;4979759;28;20034;-76
2021/09/13 00:27:38;;;;;;;2.67;1.65;;;;;;;14.68;75.13;100518.75;5006748;28;20029;-76
2021/09/13 00:30:07;;;;;;;3.08;1.90;;;;;;;14.72;75.19;100522.53;4984920;28;20439;-76
2021/09/13 00:32:36;;;;;;;4.40;2.05;;;;;;;14.69;75.04;100527.94;5028366;28;20116;-77
2021/09/13 00:35:02;;;;;;;2.30;1.80;;;;;;;14.61;74.61;100521.16;4994152;28;20168;-76
2021/09/13 00:37:27;;;;;;;3.65;1.65;;;;;;;14.61;74.94;100515.56;4998337;28;20081;-76
2021/09/13 00:39:56;;;;;;;3.58;1.88;;;;;;;14.52;74.83;100512.72;5020504;28;20045;-76
2021/09/13 00:42:22;;;;;;;2.67;1.85;;;;;;;14.51;74.84;100508.28;5027379;28;20041;-76
2021/09/13 00:44:48;;;;;;;2.30;1.80;;;;;;;14.51;75.05;100508.28;5023754;28;20057;-76
2021/09/13 00:47:13;;;;;;;2.40;1.80;;;;;;;14.49;74.77;100504.97;5009608;28;20033;-76
2021/09/13 00:49:39;;;;;;;3.67;2.10;;;;;;;14.47;74.72;100504.44;5007488;28;20029;-76
2021/09/13 00:52:05;;;;;;;2.55;1.88;;;;;;;14.41;75.05;100502.94;5020880;28;20414;-76
2021/09/13 00:54:30;;;;;;;2.92;1.95;;;;;;;14.42;75.26;100501.78;5021604;28;20017;-76
2021/09/13 00:56:56;;;;;;;3.08;2.33;;;;;;;14.38;75.23;100499.97;5019118;28;20045;-76
2021/09/13 00:59:22;;;;;;;2.25;1.92;;;;;;;14.41;75.79;100504.91;5024993;28;20029;-76
2021/09/13 01:01:47;;;;;;;3.30;2.00;;;;;;;14.35;75.61;100495.00;4997210;28;20092;-76
2021/09/13 01:04:16;;;;;;;3.17;1.80;;;;;;;14.33;75.83;100498.13;5008481;28;20026;-76
2021/09/13 01:06:41;;;;;;;3.30;2.15;;;;;;;14.32;75.58;100496.50;5018168;28;20109;-76
2021/09/13 01:09:07;;;;;;;2.75;1.90;;;;;;;14.29;75.38;100494.31;4999250;28;20069;-77
2021/09/13 01:11:33;;;;;;;3.05;2.20;;;;;;;14.26;75.36;100492.16;5028585;28;20502;-77
2021/09/13 01:14:00;;;;;;;2.40;1.88;;;;;;;14.23;75.39;100487.22;5019558;28;20037;-76
2021/09/13 01:16:26;;;;;;;3.38;2.03;;;;;;;14.21;75.29;100486.72;4991247;28;20524;-77
2021/09/13 01:18:54;;;;;;;2.55;1.90;;;;;;;14.17;75.65;100494.09;5000252;28;20038;-77
2021/09/13 01:21:19;;;;;;;3.60;2.03;;;;;;;14.13;75.64;100487.50;5007140;28;20021;-77
2021/09/13 01:23:45;;;;;;;3.50;2.05;;;;;;;14.12;75.29;100486.66;4983541;28;20037;-76
2021/09/13 01:26:11;;;;;;;3.03;1.67;;;;;;;14.10;75.24;100483.38;5019886;28;20030;-76
2021/09/13 01:28:36;;;;;;;3.33;2.03;;;;;;;14.06;75.27;100483.16;5013884;28;20060;-76
2021/09/13 01:31:02;;;;;;;3.28;2.10;;;;;;;14.03;75.25;100489.38;5020349;28;20061;-76
2021/09/13 01:33:28;;;;;;;2.92;2.53;;;;;;;14.04;75.16;100485.47;5022137;28;20034;-77
2021/09/13 01:35:53;;;;;;;3.33;2.20;;;;;;;14.06;75.72;100477.56;5007120;28;20022;-76
2021/09/13 01:38:23;;;;;;;2.58;1.90;;;;;;;13.99;75.70;100471.63;5029400;28;20052;-77
2021/09/13 01:40:49;;;;;;;3.53;2.20;;;;;;;13.98;75.74;100467.16;5009327;28;20029;-77
2021/09/13 01:43:15;;;;;;;2.90;2.20;;;;;;;13.96;75.60;100480.66;5005050;28;20033;-77
2021/09/13 01:45:40;;;;;;;2.58;2.30;;;;;;;13.97;75.89;100478.66;5047970;28;20113;-77
2021/09/13 01:48:06;;;;;;;2.78;2.25;;;;;;;13.95;75.69;100470.59;5031666;28;20555;-76
2021/09/13 01:50:32;;;;;;;2.83;2.20;;;;;;;13.93;75.99;100478.50;5015239;28;20026;-77
2021/09/13 01:52:57;;;;;;;2.97;2.33;;;;;;;13.93;75.85;100477.63;5017088;28;20049;-76
2021/09/13 01:55:23;;;;;;;6.32;2.17;;;;;;;13.91;75.65;100475.19;5027837;28;20026;-77
2021/09/13 01:57:48;;;;;;;4.63;2.95;;;;;;;13.92;76.13;100478.78;5019928;28;20037;-76
2021/09/13 02:00:14;;;;;;;2.95;2.03;;;;;;;13.93;76.36;100477.63;5018782;28;20471;-76
2021/09/13 02:02:56;;;;;;;5.30;2.53;;;;;;;13.91;76.32;100477.97;5018121;28;20030;-78
2021/09/13 02:05:27;;;;;;;5.53;2.20;;;;;;;13.92;76.34;100471.25;5005194;28;20040;-78
2021/09/13 02:07:53;;;;;;;3.88;2.50;;;;;;;13.96;76.44;100465.88;5012501;28;20044;-77
2021/09/13 02:10:18;;;;;;;3.92;2.60;;;;;;;13.96;76.34;100466.69;5020888;28;20565;-75
2021/09/13 02:12:44;;;;;;;4.88;2.65;;;;;;;13.98;76.75;100472.75;5033203;28;20030;-76
2021/09/13 02:15:10;;;;;;;3.35;2.55;;;;;;;13.98;77.47;100471.94;5046562;28;20401;-77
2021/09/13 02:17:35;;;;;;;4.32;2.80;;;;;;;13.98;77.17;100469.97;5028260;28;20053;-77
2021/09/13 02:20:01;;;;;;;3.85;2.45;;;;;;;14.01;77.45;100474.09;5050801;28;20025;-77
2021/09/13 02:22:26;;;;;;;3.22;2.70;;;;;;;14.02;77.53;100476.56;4998689;28;20034;-76
2021/09/13 02:24:52;;;;;;;3.08;2.50;;;;;;;14.03;77.28;100478.22;5034278;28;20037;-76
2021/09/13 02:27:17;;;;;;;5.00;2.95;;;;;;;14.06;77.62;100471.16;5032098;28;20418;-76
2021/09/13 02:29:43;;;;;;;3.08;2.63;;;;;;;14.11;76.52;100464.63;5020203;28;20029;-76
2021/09/13 02:32:08;;;;;;;4.57;2.50;;;;;;;14.09;77.38;100464.94;5027432;28;20509;-76
2021/09/13 02:34:34;;;;;;;4.18;2.92;;;;;;;14.11;76.96;100462.66;5035559;28;20043;-75
2021/09/13 02:37:00;;;;;;;4.20;2.60;;;;;;;14.15;76.91;100468.44;5035601;28;20045;-77
2021/09/13 02:39:25;;;;;;;4.32;3.00;;;;;;;14.15;77.47;100465.63;5009971;28;20033;-77
2021/09/13 02:41:51;;;;;;;4.93;2.97;;;;;;;14.14;77.74;100466.78;5027060;28;20386;-77
2021/09/13 02:44:17;;;;;;;3.50;2.63;;;;;;;14.15;77.87;100471.22;5032310;28;20045;-77
2021/09/13 02:46:42;;;;;;;3.95;2.65;;;;;;;14.17;77.29;100461.38;5029050;28;20033;-76
2021/09/13 02:49:08;;;;;;;3.40;2.60;;;;;;;14.19;77.80;100463.88;5017870;28;20061;-76
2021/09/13 02:51:33;;;;;;;4.18;2.85;;;;;;;14.19;77.49;100461.91;5026711;28;20033;-77
2021/09/13 02:53:59;;;;;;;3.55;2.97;;;;;;;14.19;78.27;100463.88;5035291;28;20037;-77
2021/09/13 02:56:24;;;;;;;3.30;2.63;;;;;;;14.19;77.90;100459.09;5018482;28;20045;-77
2021/09/13 02:58:50;;;;;;;3.75;2.70;;;;;;;14.20;77.53;100459.91;4985446;28;20386;-77
2021/09/13 03:01:16;;;;;;;3.58;2.92;;;;;;;14.22;77.28;100458.47;5035219;28;20077;-77
2021/09/13 03:03:42;;;;;;;3.88;2.80;;;;;;;14.22;77.05;100454.84;5001831;28;20041;-77
2021/09/13 03:06:09;;;;;;;4.40;2.40;;;;;;;14.20;77.07;100460.75;5010331;28;20030;-76
2021/09/13 03:08:34;;;;;;;3.63;3.05;;;;;;;14.23;77.58;100453.69;5014195;28;20037;-76
2021/09/13 03:11:02;;;;;;;4.65;2.40;;;;;;;14.20;76.86;100457.13;5013713;28;20486;-77
2021/09/13 03:13:28;;;;;;;4.30;3.05;;;;;;;14.18;76.99;100456.63;5019485;28;20464;-76
2021/09/13 03:15:54;;;;;;;4.60;2.70;;;;;;;14.18;77.04;100448.25;5013576;28;20064;-76
2021/09/13 03:18:19;;;;;;;4.30;2.60;;;;;;;14.18;77.02;100456.63;5032109;28;20055;-76
2021/09/13 03:20:45;;;;;;;4.07;2.97;;;;;;;14.16;76.61;100453.34;5034016;28;20040;-76
2021/09/13 03:23:11;;;;;;;3.17;2.53;;;;;;;14.15;76.84;100458.09;5018064;28;20044;-76
2021/09/13 03:25:42;;;;;;;6.32;2.63;;;;;;;14.14;77.60;100455.63;5019673;28;20033;-76
2021/09/13 03:28:07;;;;;;;4.50;2.70;;;;;;;14.13;76.67;100462.38;5017746;28;20500;-76
2021/09/13 03:30:33;;;;;;;4.30;3.05;;;;;;;14.06;77.47;100457.22;4997712;28;20034;-76
2021/09/13 03:32:58;;;;;;;3.58;3.08;;;;;;;14.06;77.32;100444.06;5031601;28;20090;-76
2021/09/13 03:35:24;;;;;;;4.10;2.83;;;;;;;14.08;77.20;100444.56;5010115;28;20021;-77
2021/09/13 03:37:50;;;;;;;3.92;2.65;;;;;;;14.08;77.39;100447.38;5007507;28;20115;-76
2021/09/13 03:40:15;;;;;;;3.20;2.45;;;;;;;14.09;77.83;100446.22;5030396;28;20038;-76
2021/09/13 03:42:41;;;;;;;5.13;2.95;;;;;;;14.06;77.77;100438.47;5035531;28;20493;-76
2021/09/13 03:45:07;;;;;;;4.38;3.00;;;;;;;14.08;77.81;100441.78;5013655;28;20034;-77
2021/09/13 03:47:32;;;;;;;5.90;3.35;;;;;;;14.07;77.87;100442.94;5035975;28;20037;-76
2021/09/13 03:49:58;;;;;;;3.70;3.03;;;;;;;14.06;77.98;100444.06;5033103;28;20033;-76
2021/09/13 03:52:23;;;;;;;4.53;3.10;;;;;;;14.03;77.53;100441.91;5001378;28;20030;-76
2021/09/13 03:54:49;;;;;;;4.72;3.28;;;;;;;14.00;77.97;100439.75;5033636;28;20029;-76
2021/09/13 03:57:14;;;;;;;3.65;3.25;;;;;;;14.03;78.21;100444.72;5034034;28;20033;-76
2021/09/13 03:59:40;;;;;;;3.88;3.25;;;;;;;14.04;77.85;100428.78;5010977;28;20112;-77
2021/09/13 04:02:06;;;;;;;3.72;3.08;;;;;;;14.03;78.14;100433.53;5017464;28;20056;-77
2021/09/13 04:04:32;;;;;;;5.22;3.20;;;;;;;14.03;77.87;100435.50;5027024;28;20049;-76
2021/09/13 04:12:04;;;;;;;6.65;3.50;;;;;;;14.02;78.19;100431.09;5034208;28;20040;-77
2021/09/13 04:14:30;;;;;;;6.72;3.70;;;;;;;14.01;78.50;100430.25;5025015;28;20022;-76
2021/09/13 04:16:56;;;;;;;4.50;3.40;;;;;;;14.02;78.32;100429.09;4999355;28;20032;-76
2021/09/13 04:19:25;;;;;;;6.28;3.22;;;;;;;13.98;78.30;100418.88;4999862;28;20052;-77
2021/09/13 04:21:51;;;;;;;4.15;3.13;;;;;;;13.97;78.02;100429.22;5031683;28;20033;-76
2021/09/13 04:24:19;;;;;;;4.85;3.40;;;;;;;13.98;78.49;100422.50;5033689;28;20064;-77
2021/09/13 04:26:45;;;;;;;4.60;3.40;;;;;;;13.95;77.96;100414.75;5016241;28;20033;-77
2021/09/13 04:29:11;;;;;;;4.10;3.00;;;;;;;13.96;78.39;100419.22;4996452;28;20061;-77
2021/09/13 04:31:36;;;;;;;4.60;3.28;;;;;;;13.94;78.63;100413.13;5013967;28;20030;-77
2021/09/13 04:34:02;;;;;;;6.35;3.50;;;;;;;13.94;78.37;100413.13;5018341;28;20061;-76
2021/09/13 04:36:28;;;;;;;4.50;3.30;;;;;;;13.92;78.09;100404.22;5032159;28;20091;-77
2021/09/13 04:38:53;;;;;;;5.05;3.50;;;;;;;13.92;77.92;100409.81;4984305;28;20050;-76
2021/09/13 04:41:19;;;;;;;5.43;3.30;;;;;;;13.90;78.37;100406.53;4982715;28;20036;-77
2021/09/13 04:43:47;;;;;;;5.90;3.83;;;;;;;13.87;78.60;100407.16;5016262;28;20036;-76
2021/09/13 04:46:13;;;;;;;5.53;3.50;;;;;;;13.88;78.96;100420.00;4998331;28;20050;-77
2021/09/13 04:48:38;;;;;;;5.43;3.08;;;;;;;13.88;78.32;100413.59;5017742;28;20048;-76
2021/09/13 04:51:04;;;;;;;6.20;3.78;;;;;;;13.90;78.52;100417.72;4997769;28;20117;-76
2021/09/13 04:53:29;;;;;;;7.47;3.80;;;;;;;13.88;78.89;100408.81;5032029;28;20036;-77
2021/09/13 04:55:57;;;;;;;4.75;3.65;;;;;;;13.90;78.71;100411.28;5001510;28;20022;-76
2021/09/13 04:58:48;;;;;;;4.20;3.40;;;;;;;13.88;78.76;100392.06;4999738;28;20032;-76
2021/09/13 05:01:16;;;;;;;6.22;3.53;;;;;;;13.86;78.29;100383.19;5027166;28;20107;-77
2021/09/13 05:03:41;;;;;;;6.55;3.50;;;;;;;13.85;78.86;100382.38;5008798;28;20036;-77
2021/09/13 05:06:07;;;;;;;5.75;3.17;;;;;;;13.83;78.58;100387.44;5031456;28;20033;-76
2021/09/13 05:08:33;;;;;;;5.15;3.50;;;;;;;13.83;78.23;100408.94;5000221;28;20041;-76
2021/09/13 05:10:58;;;;;;;5.20;3.40;;;;;;;13.84;78.58;100399.41;5017229;28;20029;-76
2021/09/13 05:13:24;;;;;;;4.80;3.53;;;;;;;13.84;78.50;100386.28;5025009;28;20037;-77
2021/09/13 05:15:52;;;;;;;4.03;3.45;;;;;;;13.84;78.30;100379.88;5015828;28;20052;-77
2021/09/13 05:18:18;;;;;;;3.33;3.03;;;;;;;13.81;78.69;100386.09;4999698;28;20032;-76
2021/09/13 05:20:43;;;;;;;4.68;3.10;;;;;;;13.80;78.64;100379.69;5026512;28;20041;-76
2021/09/13 05:23:14;;;;;;;4.15;3.20;;;;;;;13.81;78.49;100386.09;5033059;28;20048;-77
2021/09/13 05:25:54;;;;;;;4.45;3.30;;;;;;;13.79;77.87;100388.38;5001836;28;20201;-77
2021/09/13 05:28:40;;;;;;;4.38;3.10;;;;;;;13.76;78.53;100394.59;5017945;28;20128;-77
2021/09/13 05:31:06;;;;;;;5.00;3.17;;;;;;;13.75;78.12;100384.59;5013189;28;20040;-77
2021/09/13 05:33:34;;;;;;;4.68;2.88;;;;;;;13.74;78.24;100383.78;5008658;28;20036;-77
2021/09/13 05:36:00;;;;;;;4.63;3.30;;;;;;;13.74;78.46;100380.16;5010981;28;20149;-76
2021/09/13 05:38:26;;;;;;;4.50;3.17;;;;;;;13.71;78.17;100386.38;5000971;28;20125;-77
2021/09/13 05:40:51;;;;;;;3.78;2.97;;;;;;;13.70;78.37;100385.53;5035004;28;20025;-76
2021/09/13 05:43:17;;;;;;;4.07;3.03;;;;;;;13.70;78.37;100382.75;5028269;28;20552;-76
2021/09/13 05:45:43;;;;;;;4.03;3.03;;;;;;;13.71;78.31;100375.22;5023443;28;20036;-76
2021/09/13 05:48:11;;;;;;;5.75;2.70;;;;;;;13.68;78.54;100373.91;5020828;28;20469;-78
2021/09/13 05:50:37;;;;;;;5.07;2.67;;;;;;;13.68;78.35;100382.25;5034473;28;20029;-77
2021/09/13 05:53:03;;;;;;;4.65;3.20;;;;;;;13.71;78.07;100383.59;5003581;28;20040;-76
2021/09/13 05:55:28;;;;;;;6.00;2.95;;;;;;;13.70;77.71;100377.16;5018563;28;20599;-77
2021/09/13 05:57:54;;;;;;;3.67;2.80;;;;;;;13.68;78.45;100381.41;5014222;28;20033;-76
2021/09/13 06:00:20;;;;;;;4.35;3.15;;;;;;;13.69;78.60;100378.31;5014011;28;20060;-77
2021/09/13 06:02:45;;;;;;;4.13;3.00;;;;;;;13.69;78.15;100377.50;5003267;28;20033;-77
2021/09/13 06:05:14;;;;;;;3.70;2.80;;;;;;;13.70;78.91;100379.13;4999644;28;20378;-77
2021/09/13 06:07:42;;;;;;;3.50;2.95;;;;;;;13.68;78.59;100375.84;5017488;28;20069;-77
2021/09/13 06:10:08;;;;;;;4.50;2.90;;;;;;;13.70;78.25;100379.13;5011034;28;20049;-80
2021/09/13 06:12:35;;;;;;;4.13;3.40;;;;;;;13.75;78.27;100379.00;4996265;28;20516;-82
2021/09/13 06:15:00;;;;;;;3.80;2.60;;;;;;;13.75;78.44;100379.00;5003098;28;20033;-82
2021/09/13 06:17:25;;;;;;;7.22;3.08;;;;;;;13.76;78.72;100372.28;5018615;28;20029;-81
2021/09/13 06:19:51;;;;;;;4.50;3.13;;;;;;;13.80;79.04;100378.88;5014908;28;20045;-76
2021/09/13 06:22:17;;;;;;;3.72;2.95;;;;;;;13.84;79.51;100382.69;5021387;28;20033;-72
2021/09/13 06:24:42;;;;;;;4.40;2.92;;;;;;;13.91;78.79;100382.25;5036750;28;20033;-77
2021/09/13 06:27:07;;;;;;;4.53;3.10;;;;;;;13.94;79.23;100387.19;5019023;28;20034;-77
2021/09/13 06:29:34;;;;;;;4.80;3.00;;;;;;;13.99;78.87;100385.06;5001460;28;20030;-77
2021/09/13 06:31:59;;;;;;;5.13;3.53;;;;;;;14.06;81.04;100385.41;5020217;28;20033;-78
2021/09/13 06:34:26;;;;;;;7.68;5.10;;;;;;;14.12;84.72;100386.09;5018795;28;20498;-78
2021/09/13 06:36:52;;;;;;;6.57;4.40;;;;;;;14.16;86.99;100380.72;5002624;28;20029;-78
2021/09/13 06:39:17;;;;;;;15.27;5.43;;;;;;;14.21;87.93;100377.81;4987163;28;20045;-78
2021/09/13 06:41:42;;;;;;;6.72;4.47;;;;;;;14.28;83.61;100380.94;5037163;28;20045;-78
2021/09/13 06:44:08;;;;;;;10.55;5.88;;;;;;;14.36;83.36;100380.16;5018929;28;20022;-77
2021/09/13 06:49:05;;;;;;;4.85;3.25;;;;;;;14.54;81.08;100372.66;5035093;28;20041;-78
2021/09/13 06:51:30;;;;;;;4.85;3.70;;;;;;;14.63;82.24;100375.53;5001758;28;20079;-77
2021/09/13 06:53:56;;;;;;;5.40;3.28;;;;;;;14.72;80.39;100379.16;5002983;28;20044;-77
2021/09/13 06:56:21;;;;;;;6.00;4.25;;;;;;;14.78;80.69;100377.84;5036522;28;20057;-77
2021/09/13 06:58:47;;;;;;;5.60;4.60;;;;;;;14.86;84.60;100377.03;5034600;28;20095;-77
2021/09/13 07:01:12;;;;;;;8.27;5.82;;;;;;;14.92;85.85;100370.13;5035338;28;20038;-77
2021/09/13 07:03:38;;;;;;;4.88;4.18;;;;;;;15.01;83.09;100372.13;5003981;28;20029;-77
2021/09/13 07:06:03;;;;;;;11.73;5.75;;;;;;;15.07;87.60;100365.22;4997355;28;20386;-77
2021/09/13 07:08:29;;;;;;;10.38;6.53;;;;;;;15.14;87.07;100355.19;5012010;28;20033;-78
2021/09/13 07:10:54;;;;;;;7.20;4.88;;;;;;;15.22;84.27;100353.56;5035332;28;20386;-78
2021/09/13 07:13:20;;;;;;;7.05;5.20;;;;;;;15.30;84.56;100344.34;5007802;28;20034;-76
2021/09/13 07:15:46;;;;;;;10.52;6.53;;;;;;;15.35;86.69;100349.78;5018572;28;20033;-78
2021/09/13 07:18:13;;;;;;;11.93;6.72;;;;;;;15.41;86.78;100342.84;5004878;28;20030;-78
2021/09/13 07:20:39;;;;;;;7.72;5.60;;;;;;;15.47;84.95;100325.88;4999430;28;20030;-77
2021/09/13 07:23:04;;;;;;;8.93;6.07;;;;;;;15.56;85.95;100337.88;4998675;28;20029;-76
2021/09/13 07:25:30;;;;;;;9.02;5.88;;;;;;;15.65;86.36;100341.47;5004282;28;20036;-78
2021/09/13 07:27:56;;;;;;;11.40;6.22;;;;;;;15.73;86.17;100337.88;5020745;28;20045;-78
2021/09/13 07:30:22;;;;;;;9.50;5.72;;;;;;;15.81;85.33;100328.63;5002964;28;20025;-78
2021/09/13 07:32:48;;;;;;;8.38;5.53;;;;;;;15.91;84.80;100332.22;5035432;28;20565;-78
2021/09/13 07:35:14;;;;;;;8.32;4.53;;;;;;;15.99;84.03;100334.16;5020521;28;20033;-77
2021/09/13 07:37:39;;;;;;;6.03;3.67;;;;;;;16.12;82.33;100321.94;5017792;28;20136;-78
2021/09/13 07:40:06;;;;;;;6.20;4.03;;;;;;;16.22;81.73;100315.16;4988006;28;20030;-78
2021/09/13 07:42:31;;;;;;;8.95;5.53;;;;;;;16.35;84.46;100318.84;5011636;28;20085;-78
2021/09/13 07:44:58;;;;;;;5.65;4.88;;;;;;;16.45;83.55;100324.09;5001353;28;20397;-77
2021/09/13 07:47:24;;;;;;;8.57;4.88;;;;;;;16.56;81.98;100330.94;5003042;28;20029;-77
2021/09/13 07:49:49;;;;;;;7.78;4.10;;;;;;;16.69;81.17;100323.47;5001638;28;20120;-77
2021/09/13 07:52:15;;;;;;;6.03;4.40;;;;;;;16.83;81.65;100331.66;5000993;28;20025;-76
2021/09/13 07:54:40;;;;;;;9.02;4.70;;;;;;;16.94;82.22;100333.69;5013993;28;20022;-76
2021/09/13 07:57:06;;;;;;;6.43;3.88;;;;;;;17.06;80.69;100334.94;5010249;28;20037;-75
2021/09/13 07:59:31;;;;;;;7.38;4.15;;;;;;;17.18;80.76;100340.59;5001069;28;20033;-77
2021/09/13 08:01:57;;;;;;;6.65;4.05;;;;;;;17.29;81.01;100343.81;5017203;28;20452;-79
2021/09/13 08:04:22;;;;;;;8.52;4.43;;;;;;;17.40;80.27;100345.03;5001321;28;20040;-79
2021/09/13 08:06:48;;;;;;;7.13;4.28;;;;;;;17.50;80.91;100361.47;4986904;28;20026;-80
2021/09/13 08:09:13;;;;;;;9.10;4.45;;;;;;;17.59;81.09;100358.56;5017113;28;20036;-79
2021/09/13 08:11:40;;;;;;;6.53;4.63;;;;;;;17.70;82.16;100345.75;5000354;28;20025;-80
2021/09/13 08:14:05;;;;;;;4.80;3.63;;;;;;;17.82;80.85;100359.03;5014708;28;20501;-80
2021/09/13 08:16:31;;;;;;;9.95;4.90;;;;;;;17.96;81.87;100367.16;5012315;28;20018;-79
2021/09/13 08:18:58;;;;;;;8.88;4.40;;;;;;;18.09;80.71;100369.63;4991976;28;20039;-79
2021/09/13 08:21:23;;;;;;;7.78;4.10;;;;;;;18.24;79.96;100358.88;5018890;28;20406;-79
2021/09/13 08:23:49;;;;;;;6.28;4.40;;;;;;;18.44;79.99;100363.59;5000614;28;20037;-78
2021/09/13 08:26:16;;;;;;;8.82;5.53;;;;;;;18.62;79.06;100355.72;4998627;28;20041;-79
2021/09/13 08:28:43;;;;;;;6.47;4.65;;;;;;;18.83;77.68;100364.06;5017723;28;20386;-80
2021/09/13 08:31:08;;;;;;;9.27;4.80;;;;;;;19.02;77.63;100357.00;4998681;28;20093;-79
2021/09/13 08:33:34;;;;;;;8.52;4.50;;;;;;;19.21;76.73;100360.00;5013610;28;20575;-78
2021/09/13 08:36:00;;;;;;;6.93;4.07;;;;;;;19.41;75.21;100350.53;5016086;28;20029;-79
2021/09/13 08:38:26;;;;;;;8.38;5.00;;;;;;;19.61;74.47;100353.50;5033833;28;20092;-79
2021/09/13 08:40:52;;;;;;;5.00;4.00;;;;;;;19.76;73.86;100347.16;5025661;28;20101;-77
2021/09/13 08:43:17;;;;;;;8.35;4.75;;;;;;;19.93;74.44;100342.38;4996784;28;20073;-77
2021/09/13 08:50:53;;;;;;;8.70;4.40;;;;;;;20.39;72.73;100354.00;5017690;28;20103;-77
2021/09/13 08:53:25;;;;;;;7.55;3.85;;;;;;;20.55;72.38;100359.69;5020713;28;20033;-79
2021/09/13 08:55:51;;;;;;;5.82;3.60;;;;;;;20.68;72.65;100364.88;5018334;28;20112;-79
2021/09/13 08:58:24;;;;;;;8.57;4.22;;;;;;;20.84;72.86;100359.19;5025523;28;20053;-79
2021/09/13 09:00:50;;;;;;;6.38;3.80;;;;;;;20.96;72.12;100361.06;5017056;28;20090;-78
2021/09/13 09:03:16;;;;;;;6.82;3.10;;;;;;;21.08;70.21;100351.66;5034140;28;20029;-77
2021/09/13 09:05:48;;;;;;;7.05;3.38;;;;;;;21.23;71.42;100369.72;5009789;28;20041;-77
2021/09/13 09:08:30;;;;;;;7.18;3.92;;;;;;;21.34;69.20;100365.13;5010239;28;20040;-77
2021/09/13 09:11:01;;;;;;;5.15;3.20;;;;;;;21.48;70.00;100367.47;5032815;28;20033;-79
2021/09/13 09:13:41;;;;;;;5.78;3.47;;;;;;;21.66;68.83;100376.31;5017541;28;20060;-79
2021/09/13 09:16:07;;;;;;;5.20;3.30;;;;;;;21.78;67.69;100373.34;5021479;28;20044;-79
2021/09/13 09:18:45;;;;;;;5.78;2.92;;;;;;;21.90;66.85;100370.34;5011110;28;20658;-77
2021/09/13 09:21:31;;;;;;;5.40;3.42;;;;;;;22.03;67.56;100377.44;5007634;28;20028;-78
2021/09/13 09:24:01;;;;;;;4.78;3.20;;;;;;;22.15;68.11;100379.31;5032895;28;20101;-77
2021/09/13 09:26:27;;;;;;;5.55;3.22;;;;;;;22.27;67.44;100372.69;5023092;28;20034;-77
2021/09/13 09:28:52;;;;;;;5.28;2.72;;;;;;;22.39;65.53;100378.13;5027810;28;20030;-78
2021/09/13 09:31:35;;;;;;;5.82;3.05;;;;;;;22.55;65.79;100377.19;5014209;28;20084;-77
2021/09/13 09:34:19;;;;;;;;;;;;;;;22.67;65.32;100380.63;5017341;28;20782;-78
2021/09/13 09:37:12;;;;;;;5.40;2.97;;;;;;;22.86;66.43;100379.72;5032164;28;19913;-79
2021/09/13 09:39:59;;;;;;;7.10;3.50;;;;;;;22.98;65.20;100375.88;5032787;28;20045;-79
2021/09/13 09:42:28;;;;;;;7.22;2.85;;;;;;;23.10;63.83;100374.84;5016610;28;20577;-79
2021/09/13 09:44:53;;;;;;;6.13;2.92;;;;;;;23.21;63.36;100370.16;5032184;28;20025;-79
2021/09/13 09:47:20;;;;;;;4.80;2.58;;;;;;;23.35;65.13;100370.34;5027649;28;20026;-79
2021/09/13 09:49:53;;;;;;;5.20;3.50;;;;;;;23.43;64.17;100368.44;5012801;28;20482;-79
2021/09/13 09:52:37;;;;;;;;;;;;;;;23.55;63.33;100367.34;5009557;28;20033;-79
2021/09/13 09:55:19;;;;;;;7.07;3.30;;;;;;;23.62;64.90;100364.59;5007181;28;19912;-79
2021/09/13 09:58:05;;;;;;;6.80;3.20;;;;;;;23.65;64.03;100360.97;5015489;28;20033;-79
2021/09/13 10:00:30;;;;;;;5.72;2.97;;;;;;;23.72;63.50;100355.44;5018849;28;20107;-79
2021/09/13 10:02:56;;;;;;;5.40;3.20;;;;;;;23.80;63.68;100357.16;5015191;28;20053;-79
2021/09/13 10:05:26;;;;;;;4.60;2.75;;;;;;;23.88;62.42;100360.09;5016919;28;20136;-78
2021/09/13 10:07:51;;;;;;;6.25;2.80;;;;;;;23.94;63.50;100355.69;5032613;28;20033;-77
2021/09/13 10:10:21;;;;;;;4.82;3.00;;;;;;;23.99;63.80;100347.63;5016349;28;20080;-79
2021/09/13 10:12:47;;;;;;;4.55;3.08;;;;;;;24.16;63.42;100346.19;5012469;28;20116;-79
2021/09/13 10:15:13;;;;;;;8.70;3.60;;;;;;;24.17;62.29;100339.28;4999736;28;20064;-79
2021/09/13 10:17:38;;;;;;;3.92;2.95;;;;;;;24.29;61.99;100350.38;5028409;28;20021;-79
2021/09/13 10:20:05;;;;;;;6.20;3.28;;;;;;;24.44;63.15;100339.16;5015078;28;20478;-79
2021/09/13 10:22:32;;;;;;;6.03;3.05;;;;;;;24.58;63.80;100338.47;5018066;28;20052;-79
2021/09/13 10:24:58;;;;;;;3.67;2.97;;;;;;;24.64;62.28;100337.69;4996274;28;20061;-78
2021/09/13 10:27:24;;;;;;;5.03;3.13;;;;;;;24.73;62.46;100326.78;5022046;28;20037;-79
2021/09/13 10:30:21;;;;;;;4.10;3.08;;;;;;;24.78;61.72;100325.63;5019422;28;20033;-78
2021/09/13 10:32:48;;;;;;;5.60;3.13;;;;;;;24.85;61.22;100330.53;5029770;28;20063;-77
2021/09/13 10:35:14;;;;;;;6.00;3.15;;;;;;;24.78;61.20;100333.34;5019848;28;20040;-77
2021/09/13 10:37:59;;;;;;;4.50;2.97;;;;;;;24.81;61.61;100332.53;5019676;28;20069;-77
2021/09/13 10:40:25;;;;;;;5.28;2.70;;;;;;;24.90;63.09;100315.94;5030807;28;20116;-78
2021/09/13 10:43:16;;;;;;;6.20;3.10;;;;;;;24.97;62.60;100325.34;5036075;28;20033;-78
2021/09/13 10:45:42;;;;;;;5.55;2.53;;;;;;;25.04;62.83;100316.03;5032996;28;20045;-78
2021/09/13 10:48:11;;;;;;;5.78;2.70;;;;;;;25.11;63.01;100327.44;5034441;28;20032;-77
2021/09/13 10:50:42;;;;;;;4.70;2.83;;;;;;;25.16;62.31;100324.25;5016587;28;20088;-78
2021/09/13 10:53:17;;;;;;;2.93;2.40;;;;;;;25.24;62.60;100318.59;5030590;28;20037;-77
2021/09/13 10:55:46;;;;;;;3.63;2.65;;;;;;;25.29;61.84;100315.38;5034899;28;20029;-77
2021/09/13 10:58:12;;;;;;;5.15;2.83;;;;;;;25.37;62.09;100302.81;5034376;28;20094;-77
2021/09/13 11:00:41;;;;;;;6.30;2.90;;;;;;;25.42;60.58;100303.25;5030784;28;20036;-77
2021/09/13 11:03:22;;;;;;;5.78;3.10;;;;;;;25.51;60.41;100300.03;5031490;28;20529;-78
2021/09/13 11:06:08;;;;;;;10.95;2.97;;;;;;;25.61;59.95;100292.75;5023645;28;20049;-77
2021/09/13 11:08:46;;;;;;;4.50;2.20;;;;;;;25.78;60.73;100280.59;5033693;28;20046;-77
2021/09/13 11:11:24;;;;;;;3.72;2.53;;;;;;;25.95;60.22;100275.38;5036258;28;20037;-76
2021/09/13 11:14:07;;;;;;;6.90;2.97;;;;;;;26.05;59.07;100272.53;5036082;28;20037;-77
2021/09/13 11:16:34;;;;;;;6.15;3.10;;;;;;;26.15;57.27;100264.41;5029968;28;20017;-77
2021/09/13 11:19:00;;;;;;;3.70;2.63;;;;;;;26.21;57.56;100257.09;5013573;28;20040;-77
2021/09/13 11:21:30;;;;;;;4.40;2.85;;;;;;;26.24;57.75;100256.28;5033209;28;20478;-78
2021/09/13 11:24:06;;;;;;;4.53;2.78;;;;;;;26.29;57.77;100250.16;5033200;28;20489;-79
2021/09/13 11:26:47;;;;;;;4.70;2.92;;;;;;;26.38;57.45;100252.59;5017880;28;20085;-79
2021/09/13 11:29:19;;;;;;;5.43;3.00;;;;;;;26.38;56.70;100244.06;5034257;28;20674;-79
2021/09/13 11:31:49;;;;;;;7.63;3.10;;;;;;;26.32;56.57;100240.81;5036145;28;20029;-78
2021/09/13 11:34:14;;;;;;;5.82;2.85;;;;;;;26.37;56.19;100243.25;5024721;28;20038;-78
2021/09/13 11:37:00;;;;;;;4.38;2.33;;;;;;;26.48;56.92;100241.19;5028711;28;20026;-78
2021/09/13 11:39:28;;;;;;;3.80;2.33;;;;;;;26.66;55.12;100229.81;5020918;28;20077;-79